KCLS

Details ICAO KCLS
Name CHEHALIS CENTRALIA
Region United States
Timezone America/Los_Angeles (UTC-8.0)
Plans Departing 5
Arriving 2
Stats Elevation 176 ft / 54 m (AMSL)
Location 46.677030° -122.982748°
Runways 1
Magnetic Variation 15.618° E
Sunrise 2017-12-14 15:50:37 UTC / 2017-12-14 07:50:37 Local
Sunset 2017-12-15 00:25:43 UTC / 2017-12-14 16:25:43 Local
Advertisement - Login to hide

Runways

ID Width Length Bearing (true) Bearing (mag) Surface Threshold Offset Overrun Length
16 150 ft / 46 m 5,004 ft / 1,525 m 177.80° 162.18° Concrete 0 ft / 0 m 0 ft / 0 m
34 150 ft / 46 m 5,004 ft / 1,525 m 357.80° 342.18° Concrete 0 ft / 0 m 0 ft / 0 m

Map

Weather


0- 5 10 15 20 25 30 35+ Temperature / ° C

Clouds and Precipitation
Forecast for 2017-12-15 06:00 UTC. Updated an hour ago

Ground ~20,000 ft ~40,000 ft Winds

METAR

KCLS 150235Z AUTO 00000KT 5SM BR CLR 02/02 A3027 RMK AO2

TAF

Not found

Frequencies

Unicom 122.80 MHz CTAF/UNICOM
Departure 124.20 MHz SEATTLE DEP
Approach 121.10 MHz SEATTLE APP
Warning: Do not use this data for real-world aviation or navigation. No guarantee of current accuracy is given.